sensor_id;sensor_type;location;lat;lon;timestamp;P1;durP1;ratioP1;P2;durP2;ratioP2
5718;SDS011;2884;47.734;9.244;2023-01-30T00:00:50;22.53;;;13.80;;
5718;SDS011;2884;47.734;9.244;2023-01-30T00:03:17;25.88;;;14.80;;
5718;SDS011;2884;47.734;9.244;2023-01-30T00:05:42;31.73;;;14.40;;
5718;SDS011;2884;47.734;9.244;2023-01-30T00:08:08;28.87;;;15.20;;
5718;SDS011;2884;47.734;9.244;2023-01-30T00:10:33;24.50;;;13.40;;
5718;SDS011;2884;47.734;9.244;2023-01-30T00:12:59;31.63;;;15.80;;
5718;SDS011;2884;47.734;9.244;2023-01-30T00:15:25;26.30;;;13.93;;
5718;SDS011;2884;47.734;9.244;2023-01-30T00:17:50;31.20;;;15.63;;
5718;SDS011;2884;47.734;9.244;2023-01-30T00:20:16;25.87;;;15.03;;
5718;SDS011;2884;47.734;9.244;2023-01-30T00:22:41;28.53;;;14.40;;
5718;SDS011;2884;47.734;9.244;2023-01-30T00:25:07;29.53;;;13.80;;
5718;SDS011;2884;47.734;9.244;2023-01-30T00:27:33;24.00;;;14.00;;
5718;SDS011;2884;47.734;9.244;2023-01-30T00:29:59;31.30;;;13.97;;
5718;SDS011;2884;47.734;9.244;2023-01-30T00:32:26;24.00;;;14.65;;
5718;SDS011;2884;47.734;9.244;2023-01-30T00:34:52;29.67;;;14.50;;
5718;SDS011;2884;47.734;9.244;2023-01-30T00:37:17;28.83;;;14.80;;
5718;SDS011;2884;47.734;9.244;2023-01-30T00:39:43;27.87;;;14.53;;
5718;SDS011;2884;47.734;9.244;2023-01-30T00:42:08;27.90;;;14.63;;
5718;SDS011;2884;47.734;9.244;2023-01-30T00:44:52;24.25;;;13.40;;
5718;SDS011;2884;47.734;9.244;2023-01-30T00:47:37;30.67;;;14.88;;
5718;SDS011;2884;47.734;9.244;2023-01-30T00:50:03;26.93;;;14.43;;
5718;SDS011;2884;47.734;9.244;2023-01-30T00:52:29;30.33;;;15.07;;
5718;SDS011;2884;47.734;9.244;2023-01-30T00:54:55;22.93;;;14.17;;
5718;SDS011;2884;47.734;9.244;2023-01-30T00:57:20;22.90;;;13.90;;
5718;SDS011;2884;47.734;9.244;2023-01-30T00:59:46;28.57;;;15.50;;
5718;SDS011;2884;47.734;9.244;2023-01-30T01:02:11;26.80;;;13.67;;
5718;SDS011;2884;47.734;9.244;2023-01-30T01:04:37;23.27;;;14.10;;
5718;SDS011;2884;47.734;9.244;2023-01-30T01:07:12;26.88;;;15.02;;
5718;SDS011;2884;47.734;9.244;2023-01-30T01:09:38;25.23;;;13.50;;
5718;SDS011;2884;47.734;9.244;2023-01-30T01:12:04;26.23;;;14.27;;
5718;SDS011;2884;47.734;9.244;2023-01-30T01:14:30;28.45;;;14.63;;
5718;SDS011;2884;47.734;9.244;2023-01-30T01:16:56;22.65;;;12.93;;
5718;SDS011;2884;47.734;9.244;2023-01-30T01:19:22;24.60;;;14.43;;
5718;SDS011;2884;47.734;9.244;2023-01-30T01:21:51;23.70;;;12.70;;
5718;SDS011;2884;47.734;9.244;2023-01-30T01:24:16;23.70;;;13.63;;
5718;SDS011;2884;47.734;9.244;2023-01-30T01:26:42;23.67;;;13.73;;
5718;SDS011;2884;47.734;9.244;2023-01-30T01:29:13;23.90;;;12.90;;
5718;SDS011;2884;47.734;9.244;2023-01-30T01:31:39;23.45;;;13.85;;
5718;SDS011;2884;47.734;9.244;2023-01-30T01:34:05;24.20;;;14.20;;
5718;SDS011;2884;47.734;9.244;2023-01-30T01:36:31;24.20;;;13.90;;
5718;SDS011;2884;47.734;9.244;2023-01-30T01:38:56;27.10;;;15.00;;
5718;SDS011;2884;47.734;9.244;2023-01-30T01:41:22;26.80;;;15.30;;
5718;SDS011;2884;47.734;9.244;2023-01-30T01:43:58;26.67;;;13.97;;
5718;SDS011;2884;47.734;9.244;2023-01-30T01:46:35;25.60;;;13.88;;
5718;SDS011;2884;47.734;9.244;2023-01-30T01:49:07;26.00;;;13.45;;
5718;SDS011;2884;47.734;9.244;2023-01-30T01:51:45;29.02;;;15.52;;
5718;SDS011;2884;47.734;9.244;2023-01-30T01:54:28;27.65;;;15.25;;
5718;SDS011;2884;47.734;9.244;2023-01-30T01:56:58;27.35;;;14.93;;
5718;SDS011;2884;47.734;9.244;2023-01-30T02:00:11;25.00;;;14.25;;
5718;SDS011;2884;47.734;9.244;2023-01-30T02:02:17;27.50;;;14.70;;
5718;SDS011;2884;47.734;9.244;2023-01-30T02:04:44;28.38;;;15.90;;
5718;SDS011;2884;47.734;9.244;2023-01-30T02:07:32;28.08;;;15.48;;
5718;SDS011;2884;47.734;9.244;2023-01-30T02:10:01;25.40;;;13.98;;
5718;SDS011;2884;47.734;9.244;2023-01-30T02:12:27;26.50;;;15.02;;
5718;SDS011;2884;47.734;9.244;2023-01-30T02:14:53;27.67;;;15.03;;
5718;SDS011;2884;47.734;9.244;2023-01-30T02:17:21;29.30;;;14.88;;
5718;SDS011;2884;47.734;9.244;2023-01-30T02:20:01;28.17;;;14.85;;
5718;SDS011;2884;47.734;9.244;2023-01-30T02:33:49;26.17;;;14.32;;
5718;SDS011;2884;47.734;9.244;2023-01-30T02:44:33;30.40;;;15.45;;
5718;SDS011;2884;47.734;9.244;2023-01-30T02:49:45;26.83;;;13.40;;
5718;SDS011;2884;47.734;9.244;2023-01-30T02:52:13;22.30;;;14.80;;
5718;SDS011;2884;47.734;9.244;2023-01-30T02:54:38;25.80;;;14.07;;
5718;SDS011;2884;47.734;9.244;2023-01-30T02:57:14;26.60;;;14.57;;
5718;SDS011;2884;47.734;9.244;2023-01-30T02:59:43;22.30;;;13.65;;
5718;SDS011;2884;47.734;9.244;2023-01-30T03:10:46;27.98;;;14.55;;
5718;SDS011;2884;47.734;9.244;2023-01-30T03:15:56;22.77;;;13.63;;
5718;SDS011;2884;47.734;9.244;2023-01-30T03:18:26;23.15;;;13.52;;
5718;SDS011;2884;47.734;9.244;2023-01-30T03:20:51;24.03;;;12.87;;
5718;SDS011;2884;47.734;9.244;2023-01-30T03:23:17;20.90;;;12.80;;
5718;SDS011;2884;47.734;9.244;2023-01-30T03:25:42;22.03;;;12.70;;
5718;SDS011;2884;47.734;9.244;2023-01-30T03:28:09;26.02;;;13.57;;
5718;SDS011;2884;47.734;9.244;2023-01-30T03:30:35;23.45;;;13.32;;
5718;SDS011;2884;47.734;9.244;2023-01-30T03:33:01;19.63;;;12.20;;
5718;SDS011;2884;47.734;9.244;2023-01-30T03:35:26;23.60;;;13.10;;
5718;SDS011;2884;47.734;9.244;2023-01-30T03:37:53;22.20;;;12.75;;
5718;SDS011;2884;47.734;9.244;2023-01-30T03:40:19;21.70;;;12.93;;
5718;SDS011;2884;47.734;9.244;2023-01-30T03:42:44;22.97;;;13.23;;
5718;SDS011;2884;47.734;9.244;2023-01-30T03:45:10;21.43;;;13.07;;
5718;SDS011;2884;47.734;9.244;2023-01-30T03:47:36;27.33;;;14.27;;
5718;SDS011;2884;47.734;9.244;2023-01-30T03:50:01;26.03;;;13.43;;
5718;SDS011;2884;47.734;9.244;2023-01-30T03:52:27;22.57;;;14.10;;
5718;SDS011;2884;47.734;9.244;2023-01-30T03:54:53;19.30;;;11.83;;
5718;SDS011;2884;47.734;9.244;2023-01-30T03:57:18;21.57;;;12.83;;
5718;SDS011;2884;47.734;9.244;2023-01-30T03:59:43;20.53;;;12.33;;
5718;SDS011;2884;47.734;9.244;2023-01-30T04:02:09;28.03;;;15.00;;
5718;SDS011;2884;47.734;9.244;2023-01-30T04:04:35;22.13;;;13.57;;
5718;SDS011;2884;47.734;9.244;2023-01-30T04:07:00;26.00;;;13.10;;
5718;SDS011;2884;47.734;9.244;2023-01-30T04:09:26;23.10;;;13.00;;
5718;SDS011;2884;47.734;9.244;2023-01-30T04:11:52;21.10;;;13.30;;
5718;SDS011;2884;47.734;9.244;2023-01-30T04:14:17;24.07;;;13.93;;
5718;SDS011;2884;47.734;9.244;2023-01-30T04:16:43;22.30;;;13.60;;
5718;SDS011;2884;47.734;9.244;2023-01-30T04:19:09;20.15;;;12.27;;
5718;SDS011;2884;47.734;9.244;2023-01-30T04:21:35;20.13;;;12.40;;
5718;SDS011;2884;47.734;9.244;2023-01-30T04:24:00;19.83;;;11.40;;
5718;SDS011;2884;47.734;9.244;2023-01-30T04:26:26;22.70;;;13.50;;
5718;SDS011;2884;47.734;9.244;2023-01-30T04:28:51;21.50;;;12.70;;
5718;SDS011;2884;47.734;9.244;2023-01-30T04:31:17;19.30;;;12.50;;
5718;SDS011;2884;47.734;9.244;2023-01-30T04:33:43;20.17;;;12.87;;
5718;SDS011;2884;47.734;9.244;2023-01-30T04:36:09;20.17;;;12.70;;
5718;SDS011;2884;47.734;9.244;2023-01-30T04:38:35;19.88;;;12.85;;
5718;SDS011;2884;47.734;9.244;2023-01-30T04:41:01;21.80;;;12.77;;
5718;SDS011;2884;47.734;9.244;2023-01-30T04:43:27;17.90;;;10.70;;
5718;SDS011;2884;47.734;9.244;2023-01-30T04:45:54;25.80;;;12.05;;
5718;SDS011;2884;47.734;9.244;2023-01-30T04:48:20;19.83;;;12.15;;
5718;SDS011;2884;47.734;9.244;2023-01-30T04:50:48;20.75;;;11.73;;
5718;SDS011;2884;47.734;9.244;2023-01-30T04:53:16;23.08;;;12.55;;
5718;SDS011;2884;47.734;9.244;2023-01-30T04:55:42;22.70;;;13.73;;
5718;SDS011;2884;47.734;9.244;2023-01-30T04:58:27;20.33;;;11.35;;
5718;SDS011;2884;47.734;9.244;2023-01-30T05:00:53;27.97;;;12.57;;
5718;SDS011;2884;47.734;9.244;2023-01-30T05:03:18;19.83;;;12.73;;
5718;SDS011;2884;47.734;9.244;2023-01-30T05:05:47;21.93;;;12.97;;
5718;SDS011;2884;47.734;9.244;2023-01-30T05:08:13;23.25;;;13.02;;
5718;SDS011;2884;47.734;9.244;2023-01-30T05:10:39;25.50;;;14.48;;
5718;SDS011;2884;47.734;9.244;2023-01-30T05:13:05;21.70;;;11.77;;
5718;SDS011;2884;47.734;9.244;2023-01-30T05:15:32;20.80;;;12.20;;
5718;SDS011;2884;47.734;9.244;2023-01-30T05:17:57;18.90;;;11.70;;
5718;SDS011;2884;47.734;9.244;2023-01-30T05:20:23;21.30;;;12.00;;
5718;SDS011;2884;47.734;9.244;2023-01-30T05:22:49;17.58;;;11.07;;
5718;SDS011;2884;47.734;9.244;2023-01-30T05:25:14;16.73;;;10.73;;
5718;SDS011;2884;47.734;9.244;2023-01-30T05:27:41;19.33;;;11.50;;
5718;SDS011;2884;47.734;9.244;2023-01-30T05:30:07;17.13;;;11.07;;
5718;SDS011;2884;47.734;9.244;2023-01-30T05:32:33;17.23;;;10.65;;
5718;SDS011;2884;47.734;9.244;2023-01-30T05:34:58;17.50;;;10.77;;
5718;SDS011;2884;47.734;9.244;2023-01-30T05:37:24;16.83;;;11.80;;
5718;SDS011;2884;47.734;9.244;2023-01-30T05:39:50;21.07;;;11.47;;
5718;SDS011;2884;47.734;9.244;2023-01-30T05:42:15;20.13;;;12.13;;
5718;SDS011;2884;47.734;9.244;2023-01-30T05:44:41;21.57;;;12.00;;
5718;SDS011;2884;47.734;9.244;2023-01-30T05:47:06;17.13;;;11.00;;
5718;SDS011;2884;47.734;9.244;2023-01-30T05:49:32;20.87;;;12.20;;
5718;SDS011;2884;47.734;9.244;2023-01-30T05:51:58;20.73;;;11.70;;
5718;SDS011;2884;47.734;9.244;2023-01-30T05:54:23;19.23;;;11.43;;
5718;SDS011;2884;47.734;9.244;2023-01-30T05:56:49;17.87;;;11.17;;
5718;SDS011;2884;47.734;9.244;2023-01-30T05:59:15;21.10;;;12.20;;
5718;SDS011;2884;47.734;9.244;2023-01-30T06:01:46;16.25;;;11.02;;
5718;SDS011;2884;47.734;9.244;2023-01-30T06:04:11;15.13;;;9.70;;
5718;SDS011;2884;47.734;9.244;2023-01-30T06:06:37;20.93;;;11.80;;
5718;SDS011;2884;47.734;9.244;2023-01-30T06:09:02;17.17;;;10.30;;
5718;SDS011;2884;47.734;9.244;2023-01-30T06:11:29;19.23;;;11.73;;
5718;SDS011;2884;47.734;9.244;2023-01-30T06:13:54;19.30;;;11.30;;
5718;SDS011;2884;47.734;9.244;2023-01-30T06:16:20;18.00;;;11.00;;
5718;SDS011;2884;47.734;9.244;2023-01-30T06:18:45;20.87;;;12.27;;
5718;SDS011;2884;47.734;9.244;2023-01-30T06:21:12;15.87;;;9.43;;
5718;SDS011;2884;47.734;9.244;2023-01-30T06:23:38;16.25;;;10.82;;
5718;SDS011;2884;47.734;9.244;2023-01-30T06:26:04;17.23;;;11.57;;
5718;SDS011;2884;47.734;9.244;2023-01-30T06:28:30;19.40;;;11.60;;
5718;SDS011;2884;47.734;9.244;2023-01-30T06:30:55;16.20;;;10.60;;
5718;SDS011;2884;47.734;9.244;2023-01-30T06:33:24;15.65;;;9.23;;
5718;SDS011;2884;47.734;9.244;2023-01-30T06:35:50;15.00;;;9.30;;
5718;SDS011;2884;47.734;9.244;2023-01-30T06:38:16;19.42;;;9.95;;
5718;SDS011;2884;47.734;9.244;2023-01-30T06:40:44;12.55;;;8.80;;
5718;SDS011;2884;47.734;9.244;2023-01-30T06:43:10;15.48;;;9.50;;
5718;SDS011;2884;47.734;9.244;2023-01-30T06:45:36;13.60;;;9.30;;
5718;SDS011;2884;47.734;9.244;2023-01-30T06:48:02;14.20;;;9.37;;
5718;SDS011;2884;47.734;9.244;2023-01-30T06:50:28;14.57;;;9.32;;
5718;SDS011;2884;47.734;9.244;2023-01-30T06:52:54;16.02;;;9.75;;
5718;SDS011;2884;47.734;9.244;2023-01-30T06:55:25;12.77;;;9.35;;
5718;SDS011;2884;47.734;9.244;2023-01-30T06:58:04;15.52;;;9.30;;
5718;SDS011;2884;47.734;9.244;2023-01-30T07:00:32;15.05;;;9.90;;
5718;SDS011;2884;47.734;9.244;2023-01-30T07:02:58;15.95;;;9.23;;
5718;SDS011;2884;47.734;9.244;2023-01-30T07:05:23;17.40;;;9.73;;
5718;SDS011;2884;47.734;9.244;2023-01-30T07:07:50;13.13;;;9.10;;
5718;SDS011;2884;47.734;9.244;2023-01-30T07:10:15;14.87;;;8.93;;
5718;SDS011;2884;47.734;9.244;2023-01-30T07:12:41;14.90;;;10.27;;
5718;SDS011;2884;47.734;9.244;2023-01-30T07:15:06;17.60;;;10.00;;
5718;SDS011;2884;47.734;9.244;2023-01-30T07:17:32;17.27;;;10.10;;
5718;SDS011;2884;47.734;9.244;2023-01-30T07:19:58;15.60;;;10.10;;
5718;SDS011;2884;47.734;9.244;2023-01-30T07:22:24;15.87;;;10.27;;
5718;SDS011;2884;47.734;9.244;2023-01-30T07:24:49;16.30;;;9.77;;
5718;SDS011;2884;47.734;9.244;2023-01-30T07:27:15;14.40;;;9.10;;
5718;SDS011;2884;47.734;9.244;2023-01-30T07:29:40;15.10;;;9.70;;
5718;SDS011;2884;47.734;9.244;2023-01-30T07:32:06;16.03;;;9.13;;
5718;SDS011;2884;47.734;9.244;2023-01-30T07:34:32;18.67;;;10.73;;
5718;SDS011;2884;47.734;9.244;2023-01-30T07:36:58;14.32;;;8.65;;
5718;SDS011;2884;47.734;9.244;2023-01-30T07:39:24;18.07;;;9.83;;
5718;SDS011;2884;47.734;9.244;2023-01-30T07:41:49;15.03;;;8.67;;
5718;SDS011;2884;47.734;9.244;2023-01-30T07:44:15;14.50;;;9.37;;
5718;SDS011;2884;47.734;9.244;2023-01-30T07:46:40;16.93;;;9.47;;
5718;SDS011;2884;47.734;9.244;2023-01-30T07:49:06;14.60;;;9.17;;
5718;SDS011;2884;47.734;9.244;2023-01-30T07:51:34;14.77;;;9.40;;
5718;SDS011;2884;47.734;9.244;2023-01-30T07:53:59;12.63;;;8.47;;
5718;SDS011;2884;47.734;9.244;2023-01-30T07:56:26;17.70;;;9.25;;
5718;SDS011;2884;47.734;9.244;2023-01-30T07:58:53;16.15;;;10.43;;
5718;SDS011;2884;47.734;9.244;2023-01-30T08:01:19;18.23;;;10.57;;
5718;SDS011;2884;47.734;9.244;2023-01-30T08:03:44;19.77;;;11.93;;
5718;SDS011;2884;47.734;9.244;2023-01-30T08:06:11;18.55;;;10.73;;
5718;SDS011;2884;47.734;9.244;2023-01-30T08:08:38;20.25;;;12.55;;
5718;SDS011;2884;47.734;9.244;2023-01-30T08:11:04;19.57;;;12.23;;
5718;SDS011;2884;47.734;9.244;2023-01-30T08:13:29;18.87;;;10.80;;
5718;SDS011;2884;47.734;9.244;2023-01-30T08:15:58;18.33;;;11.03;;
5718;SDS011;2884;47.734;9.244;2023-01-30T08:18:24;16.83;;;10.82;;
5718;SDS011;2884;47.734;9.244;2023-01-30T08:20:50;14.60;;;9.80;;
5718;SDS011;2884;47.734;9.244;2023-01-30T08:23:15;16.40;;;10.20;;
5718;SDS011;2884;47.734;9.244;2023-01-30T08:25:41;14.73;;;10.17;;
5718;SDS011;2884;47.734;9.244;2023-01-30T08:28:07;16.00;;;9.67;;
5718;SDS011;2884;47.734;9.244;2023-01-30T08:30:32;15.77;;;9.13;;
5718;SDS011;2884;47.734;9.244;2023-01-30T08:32:58;13.50;;;9.87;;
5718;SDS011;2884;47.734;9.244;2023-01-30T08:35:23;16.30;;;9.73;;
5718;SDS011;2884;47.734;9.244;2023-01-30T08:37:49;19.33;;;9.90;;
5718;SDS011;2884;47.734;9.244;2023-01-30T08:40:14;17.40;;;10.23;;
5718;SDS011;2884;47.734;9.244;2023-01-30T08:42:43;16.95;;;10.18;;
5718;SDS011;2884;47.734;9.244;2023-01-30T08:45:09;16.95;;;10.10;;
5718;SDS011;2884;47.734;9.244;2023-01-30T08:47:35;15.10;;;9.63;;
5718;SDS011;2884;47.734;9.244;2023-01-30T08:50:01;15.77;;;10.40;;
5718;SDS011;2884;47.734;9.244;2023-01-30T08:52:27;17.70;;;10.05;;
5718;SDS011;2884;47.734;9.244;2023-01-30T08:54:52;15.23;;;9.60;;
5718;SDS011;2884;47.734;9.244;2023-01-30T08:57:36;18.00;;;10.20;;
5718;SDS011;2884;47.734;9.244;2023-01-30T09:00:02;14.43;;;9.80;;
5718;SDS011;2884;47.734;9.244;2023-01-30T09:02:29;17.85;;;11.20;;
5718;SDS011;2884;47.734;9.244;2023-01-30T09:04:54;17.63;;;10.07;;
5718;SDS011;2884;47.734;9.244;2023-01-30T09:07:20;15.50;;;9.80;;
5718;SDS011;2884;47.734;9.244;2023-01-30T09:09:46;15.80;;;8.90;;
5718;SDS011;2884;47.734;9.244;2023-01-30T09:12:12;13.98;;;9.38;;
5718;SDS011;2884;47.734;9.244;2023-01-30T09:14:38;17.38;;;11.23;;
5718;SDS011;2884;47.734;9.244;2023-01-30T09:17:04;14.00;;;9.03;;
5718;SDS011;2884;47.734;9.244;2023-01-30T09:19:29;19.43;;;10.53;;
5718;SDS011;2884;47.734;9.244;2023-01-30T09:21:55;16.10;;;10.50;;
5718;SDS011;2884;47.734;9.244;2023-01-30T09:24:21;17.90;;;11.10;;
5718;SDS011;2884;47.734;9.244;2023-01-30T09:26:54;16.95;;;11.35;;
5718;SDS011;2884;47.734;9.244;2023-01-30T09:29:22;15.02;;;9.40;;
5718;SDS011;2884;47.734;9.244;2023-01-30T09:31:48;17.20;;;10.37;;
5718;SDS011;2884;47.734;9.244;2023-01-30T09:34:13;15.90;;;10.30;;
5718;SDS011;2884;47.734;9.244;2023-01-30T09:36:39;16.67;;;8.40;;
5718;SDS011;2884;47.734;9.244;2023-01-30T09:39:05;13.20;;;9.17;;
5718;SDS011;2884;47.734;9.244;2023-01-30T09:55:22;14.25;;;9.23;;
5718;SDS011;2884;47.734;9.244;2023-01-30T09:57:49;12.32;;;8.50;;
5718;SDS011;2884;47.734;9.244;2023-01-30T10:00:27;14.60;;;9.73;;
5718;SDS011;2884;47.734;9.244;2023-01-30T10:05:37;23.10;;;10.68;;
5718;SDS011;2884;47.734;9.244;2023-01-30T10:11:12;19.35;;;9.13;;
5718;SDS011;2884;47.734;9.244;2023-01-30T10:13:44;17.73;;;9.02;;
5718;SDS011;2884;47.734;9.244;2023-01-30T10:21:36;14.35;;;9.38;;
5718;SDS011;2884;47.734;9.244;2023-01-30T10:24:22;15.70;;;9.48;;
5718;SDS011;2884;47.734;9.244;2023-01-30T10:26:51;12.25;;;8.05;;
5718;SDS011;2884;47.734;9.244;2023-01-30T10:29:23;20.73;;;8.82;;
5718;SDS011;2884;47.734;9.244;2023-01-30T10:31:53;12.68;;;7.85;;
5718;SDS011;2884;47.734;9.244;2023-01-30T10:34:24;12.95;;;8.55;;
5718;SDS011;2884;47.734;9.244;2023-01-30T10:39:39;13.82;;;9.00;;
5718;SDS011;2884;47.734;9.244;2023-01-30T10:44:39;13.90;;;9.55;;
5718;SDS011;2884;47.734;9.244;2023-01-30T10:47:14;16.65;;;9.40;;
5718;SDS011;2884;47.734;9.244;2023-01-30T11:00:14;15.70;;;9.52;;
5718;SDS011;2884;47.734;9.244;2023-01-30T11:05:23;15.48;;;10.32;;
5718;SDS011;2884;47.734;9.244;2023-01-30T11:07:50;24.05;;;9.60;;
5718;SDS011;2884;47.734;9.244;2023-01-30T11:10:16;12.50;;;8.40;;
5718;SDS011;2884;47.734;9.244;2023-01-30T11:12:44;20.77;;;8.45;;
5718;SDS011;2884;47.734;9.244;2023-01-30T11:15:11;17.42;;;9.68;;
5718;SDS011;2884;47.734;9.244;2023-01-30T11:17:40;16.73;;;9.18;;
5718;SDS011;2884;47.734;9.244;2023-01-30T11:22:49;14.65;;;9.93;;
5718;SDS011;2884;47.734;9.244;2023-01-30T11:25:28;14.15;;;7.95;;
5718;SDS011;2884;47.734;9.244;2023-01-30T11:28:01;14.60;;;8.70;;
5718;SDS011;2884;47.734;9.244;2023-01-30T11:30:29;12.00;;;9.30;;
5718;SDS011;2884;47.734;9.244;2023-01-30T11:33:05;15.30;;;9.47;;
5718;SDS011;2884;47.734;9.244;2023-01-30T11:35:40;18.73;;;7.80;;
5718;SDS011;2884;47.734;9.244;2023-01-30T11:38:10;17.40;;;8.73;;
5718;SDS011;2884;47.734;9.244;2023-01-30T11:40:38;14.30;;;8.63;;
5718;SDS011;2884;47.734;9.244;2023-01-30T11:43:09;12.90;;;8.37;;
5718;SDS011;2884;47.734;9.244;2023-01-30T11:45:37;14.33;;;8.53;;
5718;SDS011;2884;47.734;9.244;2023-01-30T11:48:09;13.87;;;8.33;;
5718;SDS011;2884;47.734;9.244;2023-01-30T11:50:42;13.85;;;8.90;;
5718;SDS011;2884;47.734;9.244;2023-01-30T11:53:29;13.23;;;8.95;;
5718;SDS011;2884;47.734;9.244;2023-01-30T11:55:58;14.15;;;8.55;;
5718;SDS011;2884;47.734;9.244;2023-01-30T11:58:31;22.10;;;9.50;;
5718;SDS011;2884;47.734;9.244;2023-01-30T12:00:58;13.98;;;8.27;;
5718;SDS011;2884;47.734;9.244;2023-01-30T12:03:24;16.52;;;9.23;;
5718;SDS011;2884;47.734;9.244;2023-01-30T12:05:51;18.08;;;9.60;;
5718;SDS011;2884;47.734;9.244;2023-01-30T12:10:55;13.60;;;9.70;;
5718;SDS011;2884;47.734;9.244;2023-01-30T12:13:35;15.60;;;9.35;;
5718;SDS011;2884;47.734;9.244;2023-01-30T12:18:41;15.07;;;9.93;;
5718;SDS011;2884;47.734;9.244;2023-01-30T12:26:44;16.33;;;9.85;;
5718;SDS011;2884;47.734;9.244;2023-01-30T12:29:31;21.23;;;9.35;;
5718;SDS011;2884;47.734;9.244;2023-01-30T12:32:08;15.73;;;9.30;;
5718;SDS011;2884;47.734;9.244;2023-01-30T12:34:37;18.27;;;9.75;;
5718;SDS011;2884;47.734;9.244;2023-01-30T12:39:47;14.40;;;9.13;;
5718;SDS011;2884;47.734;9.244;2023-01-30T12:50:38;14.07;;;10.05;;
5718;SDS011;2884;47.734;9.244;2023-01-30T13:01:56;18.55;;;10.45;;
5718;SDS011;2884;47.734;9.244;2023-01-30T13:10:24;14.32;;;8.70;;
5718;SDS011;2884;47.734;9.244;2023-01-30T13:18:19;15.50;;;10.18;;
5718;SDS011;2884;47.734;9.244;2023-01-30T13:21:09;14.43;;;8.60;;
5718;SDS011;2884;47.734;9.244;2023-01-30T13:26:12;19.23;;;10.40;;
5718;SDS011;2884;47.734;9.244;2023-01-30T13:28:42;29.15;;;10.82;;
5718;SDS011;2884;47.734;9.244;2023-01-30T13:31:11;16.95;;;10.82;;
5718;SDS011;2884;47.734;9.244;2023-01-30T13:33:40;17.20;;;9.82;;
5718;SDS011;2884;47.734;9.244;2023-01-30T13:41:32;18.92;;;11.50;;
5718;SDS011;2884;47.734;9.244;2023-01-30T13:44:00;17.48;;;10.65;;
5718;SDS011;2884;47.734;9.244;2023-01-30T13:46:30;16.58;;;11.30;;
5718;SDS011;2884;47.734;9.244;2023-01-30T13:54:11;16.85;;;11.38;;
5718;SDS011;2884;47.734;9.244;2023-01-30T13:56:42;16.67;;;9.98;;
5718;SDS011;2884;47.734;9.244;2023-01-30T13:59:14;17.40;;;10.82;;
5718;SDS011;2884;47.734;9.244;2023-01-30T14:09:36;14.10;;;9.90;;
5718;SDS011;2884;47.734;9.244;2023-01-30T14:12:05;18.35;;;11.70;;
5718;SDS011;2884;47.734;9.244;2023-01-30T14:14:34;15.50;;;9.90;;
5718;SDS011;2884;47.734;9.244;2023-01-30T14:17:08;17.67;;;10.75;;
5718;SDS011;2884;47.734;9.244;2023-01-30T14:19:40;13.88;;;9.07;;
5718;SDS011;2884;47.734;9.244;2023-01-30T14:22:20;15.52;;;10.02;;
5718;SDS011;2884;47.734;9.244;2023-01-30T14:35:48;17.10;;;10.50;;
5718;SDS011;2884;47.734;9.244;2023-01-30T14:38:22;17.47;;;10.03;;
5718;SDS011;2884;47.734;9.244;2023-01-30T14:51:21;17.48;;;10.48;;
5718;SDS011;2884;47.734;9.244;2023-01-30T14:54:01;17.08;;;10.90;;
5718;SDS011;2884;47.734;9.244;2023-01-30T14:56:43;16.42;;;9.95;;
5718;SDS011;2884;47.734;9.244;2023-01-30T15:01:58;16.45;;;10.73;;
5718;SDS011;2884;47.734;9.244;2023-01-30T15:07:42;15.25;;;9.88;;
5718;SDS011;2884;47.734;9.244;2023-01-30T15:23:49;14.30;;;9.20;;
5718;SDS011;2884;47.734;9.244;2023-01-30T15:32:20;17.05;;;9.95;;
5718;SDS011;2884;47.734;9.244;2023-01-30T15:37:50;15.43;;;9.77;;
5718;SDS011;2884;47.734;9.244;2023-01-30T15:40:18;13.43;;;8.82;;
5718;SDS011;2884;47.734;9.244;2023-01-30T15:42:46;14.15;;;9.77;;
5718;SDS011;2884;47.734;9.244;2023-01-30T15:48:27;15.10;;;9.43;;
5718;SDS011;2884;47.734;9.244;2023-01-30T15:50:58;17.52;;;9.73;;
5718;SDS011;2884;47.734;9.244;2023-01-30T15:53:28;13.73;;;9.18;;
5718;SDS011;2884;47.734;9.244;2023-01-30T15:55:56;14.90;;;9.25;;
5718;SDS011;2884;47.734;9.244;2023-01-30T15:58:23;14.95;;;9.35;;
5718;SDS011;2884;47.734;9.244;2023-01-30T16:00:50;16.13;;;10.65;;
5718;SDS011;2884;47.734;9.244;2023-01-30T16:03:22;15.88;;;9.85;;
5718;SDS011;2884;47.734;9.244;2023-01-30T16:05:53;14.35;;;10.20;;
5718;SDS011;2884;47.734;9.244;2023-01-30T16:08:21;15.45;;;10.38;;
5718;SDS011;2884;47.734;9.244;2023-01-30T16:10:48;16.52;;;9.80;;
5718;SDS011;2884;47.734;9.244;2023-01-30T16:13:16;18.13;;;10.20;;
5718;SDS011;2884;47.734;9.244;2023-01-30T16:20:49;15.15;;;10.48;;
5718;SDS011;2884;47.734;9.244;2023-01-30T16:23:26;15.30;;;10.30;;
5718;SDS011;2884;47.734;9.244;2023-01-30T16:25:54;15.07;;;10.68;;
5718;SDS011;2884;47.734;9.244;2023-01-30T16:28:23;20.20;;;11.70;;
5718;SDS011;2884;47.734;9.244;2023-01-30T16:31:03;18.17;;;10.75;;
5718;SDS011;2884;47.734;9.244;2023-01-30T16:33:30;17.23;;;10.68;;
5718;SDS011;2884;47.734;9.244;2023-01-30T16:36:27;17.63;;;10.32;;
5718;SDS011;2884;47.734;9.244;2023-01-30T16:38:52;20.83;;;11.38;;
5718;SDS011;2884;47.734;9.244;2023-01-30T16:47:05;26.48;;;12.30;;
5718;SDS011;2884;47.734;9.244;2023-01-30T16:52:12;22.85;;;12.20;;
5718;SDS011;2884;47.734;9.244;2023-01-30T16:54:53;16.67;;;10.40;;
5718;SDS011;2884;47.734;9.244;2023-01-30T16:59:56;18.67;;;11.00;;
5718;SDS011;2884;47.734;9.244;2023-01-30T17:02:33;19.80;;;11.00;;
5718;SDS011;2884;47.734;9.244;2023-01-30T17:05:14;23.08;;;13.57;;
5718;SDS011;2884;47.734;9.244;2023-01-30T17:07:41;18.92;;;11.85;;
5718;SDS011;2884;47.734;9.244;2023-01-30T17:13:50;14.23;;;9.20;;
5718;SDS011;2884;47.734;9.244;2023-01-30T17:16:21;13.35;;;9.30;;
5718;SDS011;2884;47.734;9.244;2023-01-30T17:18:51;17.23;;;9.90;;
5718;SDS011;2884;47.734;9.244;2023-01-30T17:21:18;19.08;;;10.60;;
5718;SDS011;2884;47.734;9.244;2023-01-30T17:23:49;12.75;;;8.93;;
5718;SDS011;2884;47.734;9.244;2023-01-30T17:26:17;19.20;;;10.88;;
5718;SDS011;2884;47.734;9.244;2023-01-30T17:28:43;14.53;;;9.97;;
5718;SDS011;2884;47.734;9.244;2023-01-30T17:31:12;15.50;;;10.57;;
5718;SDS011;2884;47.734;9.244;2023-01-30T17:33:38;13.40;;;9.63;;
5718;SDS011;2884;47.734;9.244;2023-01-30T17:36:05;16.03;;;10.90;;
5718;SDS011;2884;47.734;9.244;2023-01-30T17:38:34;14.93;;;10.63;;
5718;SDS011;2884;47.734;9.244;2023-01-30T17:40:59;17.80;;;10.70;;
5718;SDS011;2884;47.734;9.244;2023-01-30T17:43:26;15.45;;;9.65;;
5718;SDS011;2884;47.734;9.244;2023-01-30T17:45:52;16.67;;;10.87;;
5718;SDS011;2884;47.734;9.244;2023-01-30T17:48:17;16.53;;;10.63;;
5718;SDS011;2884;47.734;9.244;2023-01-30T17:50:43;15.80;;;10.27;;
5718;SDS011;2884;47.734;9.244;2023-01-30T17:53:08;17.97;;;11.40;;
5718;SDS011;2884;47.734;9.244;2023-01-30T17:55:34;15.50;;;10.20;;
5718;SDS011;2884;47.734;9.244;2023-01-30T17:58:00;14.60;;;9.50;;
5718;SDS011;2884;47.734;9.244;2023-01-30T18:00:25;13.13;;;9.77;;
5718;SDS011;2884;47.734;9.244;2023-01-30T18:02:51;15.20;;;10.50;;
5718;SDS011;2884;47.734;9.244;2023-01-30T18:05:17;16.38;;;10.80;;
5718;SDS011;2884;47.734;9.244;2023-01-30T18:07:43;15.30;;;10.00;;
5718;SDS011;2884;47.734;9.244;2023-01-30T18:10:15;17.67;;;11.47;;
5718;SDS011;2884;47.734;9.244;2023-01-30T18:12:43;16.65;;;11.05;;
5718;SDS011;2884;47.734;9.244;2023-01-30T18:15:11;15.02;;;10.00;;
5718;SDS011;2884;47.734;9.244;2023-01-30T18:17:40;17.77;;;11.35;;
5718;SDS011;2884;47.734;9.244;2023-01-30T18:20:08;17.60;;;10.65;;
5718;SDS011;2884;47.734;9.244;2023-01-30T18:22:34;14.40;;;9.93;;
5718;SDS011;2884;47.734;9.244;2023-01-30T18:25:00;14.50;;;9.97;;
5718;SDS011;2884;47.734;9.244;2023-01-30T18:27:25;15.57;;;9.50;;
5718;SDS011;2884;47.734;9.244;2023-01-30T18:29:51;13.90;;;10.13;;
5718;SDS011;2884;47.734;9.244;2023-01-30T18:32:16;13.73;;;10.40;;
5718;SDS011;2884;47.734;9.244;2023-01-30T18:34:42;18.00;;;10.17;;